createdAt,value
2018-04-07T00:02:09.786Z,1.13
2018-04-07T00:04:37.567Z,1.10
2018-04-07T00:07:05.418Z,1.00
2018-04-07T00:09:33.268Z,1.00
2018-04-07T00:12:01.119Z,1.20
2018-04-07T00:14:28.966Z,0.93
2018-04-07T00:16:56.704Z,1.20
2018-04-07T00:19:24.668Z,1.40
2018-04-07T00:21:52.519Z,1.33
2018-04-07T00:24:20.370Z,0.97
2018-04-07T00:26:48.414Z,1.30
2018-04-07T00:29:16.140Z,1.30
2018-04-07T00:31:43.799Z,0.90
2018-04-07T00:34:11.372Z,1.43
2018-04-07T00:36:38.914Z,1.20
2018-04-07T00:39:06.878Z,1.13
2018-04-07T00:41:34.603Z,1.17
2018-04-07T00:44:02.458Z,0.97
2018-04-07T00:46:30.234Z,1.17
2018-04-07T00:48:58.085Z,1.10
2018-04-07T00:51:25.807Z,1.00
2018-04-07T00:53:53.390Z,1.07
2018-04-07T00:56:21.241Z,1.20
2018-04-07T00:58:49.089Z,1.30
2018-04-07T01:01:16.940Z,1.23
2018-04-07T01:03:44.791Z,1.13
2018-04-07T01:06:12.641Z,1.17
2018-04-07T01:08:40.489Z,1.17
2018-04-07T01:11:08.214Z,0.93
2018-04-07T01:13:35.994Z,1.07
2018-04-07T01:16:04.043Z,1.20
2018-04-07T01:18:31.895Z,1.00
2018-04-07T01:20:59.740Z,0.90
2018-04-07T01:23:27.590Z,1.33
2018-04-07T01:25:55.441Z,1.07
2018-04-07T01:28:23.296Z,1.40
2018-04-07T01:30:51.142Z,0.87
2018-04-07T01:33:18.991Z,1.07
2018-04-07T01:35:46.842Z,1.60
2018-04-07T01:38:14.695Z,1.27
2018-04-07T01:40:42.543Z,1.00
2018-04-07T01:43:10.267Z,1.20
2018-04-07T01:45:38.045Z,0.80
2018-04-07T01:48:05.769Z,1.27
2018-04-07T01:50:33.551Z,0.90
2018-04-07T01:53:01.398Z,0.80
2018-04-07T01:55:29.122Z,0.90
2018-04-07T01:57:56.979Z,0.90
2018-04-07T02:00:24.753Z,1.00
2018-04-07T02:02:52.604Z,1.03
2018-04-07T02:05:20.454Z,1.90
2018-04-07T02:07:48.305Z,1.30
2018-04-07T02:10:16.041Z,1.27
2018-04-07T02:12:44.003Z,1.30
2018-04-07T02:15:11.855Z,1.50
2018-04-07T02:17:39.705Z,1.20
2018-04-07T02:20:07.554Z,0.97
2018-04-07T02:22:35.404Z,0.83
2018-04-07T02:25:03.254Z,0.90
2018-04-07T02:27:31.105Z,1.20
2018-04-07T02:29:58.953Z,1.20
2018-04-07T02:32:26.680Z,1.30
2018-04-07T02:34:54.654Z,1.03
2018-04-07T02:37:22.506Z,1.50
2018-04-07T02:39:50.357Z,1.10
2018-04-07T02:42:18.180Z,1.07
2018-04-07T02:44:45.730Z,1.20
2018-04-07T02:47:13.390Z,1.20
2018-04-07T02:49:41.044Z,1.20
2018-04-07T02:52:08.818Z,1.20
2018-04-07T02:54:36.669Z,1.07
2018-04-07T02:57:04.519Z,1.03
2018-04-07T02:59:32.369Z,1.00
2018-04-07T03:02:00.094Z,0.97
2018-04-07T03:04:27.872Z,1.13
2018-04-07T03:06:55.723Z,1.20
2018-04-07T03:09:23.578Z,1.20
2018-04-07T03:11:51.493Z,0.83
2018-04-07T03:14:19.146Z,1.27
2018-04-07T03:16:46.996Z,0.90
2018-04-07T03:19:14.777Z,1.10
2018-04-07T03:21:42.629Z,0.87
2018-04-07T03:24:10.347Z,0.90
2018-04-07T03:26:38.327Z,1.17
2018-04-07T03:29:06.177Z,1.10
2018-04-07T03:31:33.903Z,1.00
2018-04-07T03:34:01.878Z,1.10
2018-04-07T03:36:29.727Z,1.00
2018-04-07T03:38:57.579Z,1.20
2018-04-07T03:41:25.432Z,0.87
2018-04-07T03:43:53.277Z,1.10
2018-04-07T03:46:21.002Z,0.80
2018-04-07T03:48:48.979Z,1.43
2018-04-07T03:51:16.830Z,1.20
2018-04-07T03:53:44.683Z,1.17
2018-04-07T03:56:12.529Z,1.07
2018-04-07T03:58:40.065Z,1.10
2018-04-07T04:01:07.837Z,1.00
2018-04-07T04:03:35.395Z,1.27
2018-04-07T04:06:03.341Z,1.17
2018-04-07T04:08:31.190Z,1.00
2018-04-07T04:10:59.039Z,1.50
2018-04-07T04:13:27.086Z,1.10
2018-04-07T04:15:54.936Z,1.10
2018-04-07T04:18:22.784Z,1.57
2018-04-07T04:20:50.637Z,1.20
2018-04-07T04:23:18.685Z,1.00
2018-04-07T04:25:46.532Z,1.00
2018-04-07T04:28:14.383Z,1.07
2018-04-07T04:30:42.236Z,1.23
2018-04-07T04:33:10.084Z,1.20
2018-04-07T04:35:37.941Z,1.00
2018-04-07T04:38:06.251Z,0.90
2018-04-07T04:40:34.223Z,1.20
2018-04-07T04:43:02.074Z,1.10
2018-04-07T04:45:29.924Z,1.37
2018-04-07T04:47:57.772Z,1.03
2018-04-07T04:50:25.621Z,0.87
2018-04-07T04:52:53.474Z,0.80
2018-04-07T04:55:21.199Z,1.10
2018-04-07T04:57:49.175Z,1.20
2018-04-07T05:00:16.714Z,1.07
2018-04-07T05:02:44.677Z,1.30
2018-04-07T05:05:12.528Z,0.90
2018-04-07T05:07:40.379Z,1.30
2018-04-07T05:10:08.230Z,0.90
2018-04-07T05:12:36.078Z,1.20
2018-04-07T05:15:03.899Z,1.53
2018-04-07T05:17:31.779Z,0.90
2018-04-07T05:19:59.629Z,1.30
2018-04-07T05:22:27.479Z,1.40
2018-04-07T05:24:55.330Z,1.00
2018-04-07T05:27:23.179Z,1.10
2018-04-07T05:29:51.027Z,0.73
2018-04-07T05:32:18.879Z,1.00
2018-04-07T05:34:46.730Z,0.90
2018-04-07T05:37:14.382Z,1.03
2018-04-07T05:39:42.233Z,0.70
2018-04-07T05:42:10.280Z,0.77
2018-04-07T05:44:38.130Z,0.90
2018-04-07T05:47:06.178Z,0.73
2018-04-07T05:49:34.023Z,0.90
2018-04-07T05:52:01.877Z,0.90
2018-04-07T05:54:29.727Z,0.80
2018-04-07T05:56:57.577Z,1.00
2018-04-07T05:59:25.425Z,0.77
2018-04-07T06:01:53.674Z,0.80
2018-04-07T06:04:21.521Z,1.00
2018-04-07T06:06:49.246Z,0.80
2018-04-07T06:09:17.025Z,0.73
2018-04-07T06:11:44.877Z,0.80
2018-04-07T06:14:13.116Z,0.80
2018-04-07T06:16:40.967Z,0.90
2018-04-07T06:19:08.694Z,0.97
2018-04-07T06:21:36.472Z,0.90
2018-04-07T06:24:04.074Z,0.90
2018-04-07T06:26:31.627Z,1.10
2018-04-07T06:28:59.176Z,1.10
2018-04-07T06:31:26.744Z,0.93
2018-04-07T06:33:54.292Z,1.10
2018-04-07T06:36:21.861Z,1.00
2018-04-07T06:38:49.414Z,1.03
2018-04-07T06:41:17.306Z,0.73
2018-04-07T06:43:45.154Z,1.00
2018-04-07T06:46:13.471Z,1.20
2018-04-07T06:48:41.250Z,0.83
2018-04-07T06:51:08.977Z,0.97
2018-04-07T06:53:36.753Z,1.00
2018-04-07T06:56:04.602Z,5.50
2018-04-07T06:58:32.331Z,1.30
2018-04-07T07:01:00.107Z,1.30
2018-04-07T07:03:27.955Z,1.20
2018-04-07T07:05:55.807Z,0.80
2018-04-07T07:08:23.656Z,1.00
2018-04-07T07:10:51.516Z,1.00
2018-04-07T07:13:19.295Z,0.77
2018-04-07T07:15:47.210Z,0.77
2018-04-07T07:18:15.492Z,1.10
2018-04-07T07:20:43.499Z,0.73
2018-04-07T07:23:11.365Z,1.00
2018-04-07T07:25:39.197Z,0.80
2018-04-07T07:28:07.053Z,1.50
2018-04-07T07:30:34.896Z,0.90
2018-04-07T07:33:02.472Z,1.17
2018-04-07T07:35:30.012Z,1.33
2018-04-07T07:37:57.576Z,0.80
2018-04-07T07:40:25.117Z,1.10
2018-04-07T07:42:52.682Z,0.77
2018-04-07T07:45:20.249Z,1.40
2018-04-07T07:47:47.810Z,0.77
2018-04-07T07:50:15.516Z,0.80
2018-04-07T07:52:43.066Z,0.90
2018-04-07T07:55:10.604Z,1.63
2018-04-07T07:57:38.157Z,1.30
2018-04-07T08:00:05.730Z,1.10
2018-04-07T08:02:33.319Z,1.10
2018-04-07T08:05:00.881Z,1.10
2018-04-07T08:07:28.460Z,1.10
2018-04-07T08:09:56.020Z,0.87
2018-04-07T08:12:23.554Z,0.93
2018-04-07T08:14:51.129Z,1.00
2018-04-07T08:17:18.669Z,1.00
2018-04-07T08:19:46.234Z,1.67
2018-04-07T08:22:13.977Z,1.33
2018-04-07T08:24:41.535Z,1.63
2018-04-07T08:27:09.077Z,1.37
2018-04-07T08:29:36.670Z,1.60
2018-04-07T08:32:04.293Z,1.83
2018-04-07T08:34:32.512Z,1.60
2018-04-07T08:37:00.246Z,3.90
2018-04-07T08:39:27.840Z,1.73
2018-04-07T08:41:55.361Z,1.27
2018-04-07T08:44:23.322Z,1.70
2018-04-07T08:46:51.098Z,1.40
2018-04-07T08:49:18.648Z,1.70
2018-04-07T08:51:46.253Z,1.40
2018-04-07T08:54:13.998Z,1.40
2018-04-07T08:56:41.574Z,6.57
2018-04-07T08:59:09.126Z,1.60
2018-04-07T09:01:36.678Z,1.37
2018-04-07T09:04:04.243Z,1.50
2018-04-07T09:06:31.814Z,2.27
2018-04-07T09:08:59.342Z,2.03
2018-04-07T09:11:26.886Z,1.73
2018-04-07T09:13:54.418Z,1.80
2018-04-07T09:16:21.970Z,1.43
2018-04-07T09:18:49.565Z,1.10
2018-04-07T09:21:17.117Z,1.40
2018-04-07T09:23:44.678Z,1.03
2018-04-07T09:26:12.262Z,1.40
2018-04-07T09:28:39.819Z,1.30
2018-04-07T09:31:13.082Z,1.20
2018-04-07T09:33:40.651Z,1.30
2018-04-07T09:36:08.196Z,1.10
2018-04-07T09:38:35.734Z,1.20
2018-04-07T09:41:03.284Z,1.10
2018-04-07T09:43:31.134Z,1.30
2018-04-07T09:45:58.861Z,0.90
2018-04-07T09:48:26.714Z,1.10
2018-04-07T09:50:54.282Z,1.07
2018-04-07T09:53:21.866Z,1.30
2018-04-07T09:55:49.419Z,1.47
2018-04-07T09:58:17.647Z,1.23
2018-04-07T10:00:47.466Z,1.13
2018-04-07T10:03:20.818Z,1.10
2018-04-07T10:05:48.667Z,1.23
2018-04-07T10:08:16.518Z,1.20
2018-04-07T10:10:44.374Z,1.00
2018-04-07T10:13:11.933Z,1.17
2018-04-07T10:15:39.506Z,1.03
2018-04-07T10:18:07.095Z,1.40
2018-04-07T10:20:34.744Z,1.37
2018-04-07T10:23:02.299Z,1.50
2018-04-07T10:25:29.926Z,0.93
2018-04-07T10:27:57.479Z,1.30
2018-04-07T10:30:25.110Z,1.23
2018-04-07T10:32:52.666Z,1.13
2018-04-07T10:35:20.205Z,1.40
2018-04-07T10:37:48.038Z,1.20
2018-04-07T10:40:15.583Z,1.50
2018-04-07T10:42:43.125Z,1.30
2018-04-07T10:45:10.664Z,0.80
2018-04-07T10:47:38.201Z,0.97
2018-04-07T10:50:05.738Z,1.30
2018-04-07T10:52:33.399Z,1.20
2018-04-07T10:55:00.912Z,1.13
2018-04-07T10:57:28.447Z,1.63
2018-04-07T10:59:56.107Z,1.40
2018-04-07T11:02:24.193Z,1.10
2018-04-07T11:04:51.740Z,1.60
2018-04-07T11:07:19.299Z,1.20
2018-04-07T11:09:46.858Z,1.23
2018-04-07T11:12:14.466Z,1.20
2018-04-07T11:14:42.049Z,1.17
2018-04-07T11:17:09.629Z,1.30
2018-04-07T11:19:37.233Z,1.10
2018-04-07T11:22:04.842Z,1.03
2018-04-07T11:24:32.382Z,1.20
2018-04-07T11:26:59.918Z,1.10
2018-04-07T11:29:27.477Z,1.10
2018-04-07T11:31:55.027Z,1.00
2018-04-07T11:34:23.089Z,0.90
2018-04-07T11:36:50.675Z,1.10
2018-04-07T11:39:18.238Z,1.10
2018-04-07T11:41:45.838Z,1.07
2018-04-07T11:44:13.471Z,1.07
2018-04-07T11:46:41.001Z,1.37
2018-04-07T11:49:08.554Z,1.20
2018-04-07T11:51:36.230Z,1.20
2018-04-07T11:54:03.791Z,1.20
2018-04-07T11:56:31.331Z,0.87
2018-04-07T11:58:58.869Z,1.10
2018-04-07T12:01:26.413Z,1.03
2018-04-07T12:03:54.035Z,1.40
2018-04-07T12:06:21.637Z,1.70
2018-04-07T12:08:49.189Z,1.60
2018-04-07T12:11:16.773Z,1.30
2018-04-07T12:13:44.313Z,1.30
2018-04-07T12:16:11.957Z,1.30
2018-04-07T12:18:39.541Z,1.30
2018-04-07T12:21:07.104Z,1.27
2018-04-07T12:23:34.760Z,0.83
2018-04-07T12:26:02.343Z,1.30
2018-04-07T12:28:29.944Z,1.20
2018-04-07T12:30:57.515Z,1.30
2018-04-07T12:33:25.071Z,1.10
2018-04-07T12:35:52.756Z,1.97
2018-04-07T12:38:20.354Z,1.53
2018-04-07T12:40:47.929Z,1.50
2018-04-07T12:43:15.534Z,1.23
2018-04-07T12:45:43.089Z,1.13
2018-04-07T12:48:10.662Z,1.33
2018-04-07T12:50:38.278Z,1.53
2018-04-07T12:53:05.893Z,1.27
2018-04-07T12:55:33.472Z,1.47
2018-04-07T12:58:01.006Z,1.30
2018-04-07T13:00:28.556Z,1.30
2018-04-07T13:02:56.178Z,1.20
2018-04-07T13:05:23.724Z,1.27
2018-04-07T13:07:51.279Z,1.40
2018-04-07T13:10:18.864Z,1.50
2018-04-07T13:12:46.441Z,1.37
2018-04-07T13:15:13.987Z,1.40
2018-04-07T13:17:41.564Z,1.40
2018-04-07T13:20:09.143Z,1.03
2018-04-07T13:22:36.748Z,1.27
2018-04-07T13:25:04.331Z,1.67
2018-04-07T13:27:31.913Z,1.60
2018-04-07T13:29:59.452Z,1.47
2018-04-07T13:32:27.002Z,1.50
2018-04-07T13:34:54.554Z,1.50
2018-04-07T13:37:22.086Z,1.80
2018-04-07T13:39:49.631Z,1.50
2018-04-07T13:42:17.750Z,1.57
2018-04-07T13:44:45.287Z,2.60
2018-04-07T13:47:12.962Z,1.77
2018-04-07T13:49:40.516Z,1.70
2018-04-07T13:52:08.066Z,1.50
2018-04-07T13:54:35.663Z,1.70
2018-04-07T13:57:03.252Z,1.70
2018-04-07T13:59:30.879Z,1.77
2018-04-07T14:01:58.453Z,1.80
2018-04-07T14:04:26.033Z,1.63
2018-04-07T14:06:53.604Z,1.83
2018-04-07T14:09:21.158Z,2.03
2018-04-07T14:11:48.698Z,1.53
2018-04-07T14:14:16.303Z,1.63
2018-04-07T14:16:43.891Z,1.77
2018-04-07T14:19:11.434Z,1.70
2018-04-07T14:21:39.031Z,1.57
2018-04-07T14:24:06.595Z,1.57
2018-04-07T14:26:34.162Z,1.70
2018-04-07T14:29:01.705Z,1.70
2018-04-07T14:31:29.270Z,2.10
2018-04-07T14:33:56.813Z,1.90
2018-04-07T14:36:24.367Z,1.90
2018-04-07T14:38:51.906Z,2.00
2018-04-07T14:41:19.457Z,1.87
2018-04-07T14:43:46.996Z,1.70
2018-04-07T14:46:14.576Z,2.20
2018-04-07T14:48:42.115Z,2.17
2018-04-07T14:51:09.664Z,1.80
2018-04-07T14:53:37.313Z,2.00
2018-04-07T14:56:04.870Z,1.80
2018-04-07T14:58:32.410Z,1.93
2018-04-07T15:00:59.959Z,2.13
2018-04-07T15:03:27.518Z,2.20
2018-04-07T15:05:55.077Z,2.47
2018-04-07T15:08:22.841Z,1.93
2018-04-07T15:10:50.406Z,2.57
2018-04-07T15:13:17.962Z,2.57
2018-04-07T15:15:45.506Z,2.30
2018-04-07T15:18:13.096Z,2.47
2018-04-07T15:20:40.642Z,2.30
2018-04-07T15:23:08.197Z,2.33
2018-04-07T15:25:35.743Z,2.00
2018-04-07T15:28:03.413Z,2.47
2018-04-07T15:30:30.963Z,2.57
2018-04-07T15:32:58.545Z,2.40
2018-04-07T15:35:26.108Z,2.50
2018-04-07T15:37:53.671Z,2.30
2018-04-07T15:40:21.253Z,2.20
2018-04-07T15:42:48.789Z,2.53
2018-04-07T15:45:16.417Z,3.00
2018-04-07T15:47:43.965Z,2.60
2018-04-07T15:50:11.546Z,2.80
2018-04-07T15:52:39.094Z,2.70
2018-04-07T15:55:06.732Z,2.27
2018-04-07T15:57:34.289Z,2.13
2018-04-07T16:00:01.892Z,3.40
2018-04-07T16:02:29.450Z,2.23
2018-04-07T16:04:57.053Z,3.23
2018-04-07T16:07:24.653Z,2.20
2018-04-07T16:09:52.251Z,2.67
2018-04-07T16:12:19.872Z,2.40
2018-04-07T16:14:47.443Z,2.57
2018-04-07T16:17:15.045Z,2.33
2018-04-07T16:19:42.606Z,2.30
2018-04-07T16:22:10.206Z,2.30
2018-04-07T16:24:37.763Z,2.10
2018-04-07T16:27:05.322Z,2.43
2018-04-07T16:29:32.926Z,2.50
2018-04-07T16:32:00.470Z,2.77
2018-04-07T16:34:28.017Z,2.77
2018-04-07T16:36:55.578Z,2.43
2018-04-07T16:39:23.178Z,2.30
2018-04-07T16:41:50.784Z,1.93
2018-04-07T16:44:18.331Z,2.10
2018-04-07T16:46:45.935Z,2.20
2018-04-07T16:49:13.489Z,2.03
2018-04-07T16:51:41.040Z,2.37
2018-04-07T16:54:08.646Z,2.23
2018-04-07T16:56:36.259Z,2.30
2018-04-07T16:59:03.795Z,2.50
2018-04-07T17:01:31.339Z,2.50
2018-04-07T17:03:58.882Z,2.27
2018-04-07T17:06:26.426Z,2.53
2018-04-07T17:08:54.931Z,2.30
2018-04-07T17:11:22.470Z,1.90
2018-04-07T17:13:50.047Z,2.10
2018-04-07T17:16:17.606Z,2.27
2018-04-07T17:18:45.161Z,2.40
2018-04-07T17:21:12.744Z,2.40
2018-04-07T17:23:40.355Z,2.30
2018-04-07T17:26:07.946Z,2.10
2018-04-07T17:28:35.487Z,2.60
2018-04-07T17:31:03.028Z,2.27
2018-04-07T17:33:30.606Z,2.23
2018-04-07T17:35:58.150Z,2.80
2018-04-07T17:38:25.702Z,2.23
2018-04-07T17:40:53.266Z,2.73
2018-04-07T17:43:20.834Z,2.80
2018-04-07T17:45:48.543Z,2.43
2018-04-07T17:48:16.084Z,2.63
2018-04-07T17:50:43.710Z,2.83
2018-04-07T17:53:11.279Z,2.90
2018-04-07T17:55:38.841Z,2.70
2018-04-07T17:58:06.527Z,3.00
2018-04-07T18:00:34.108Z,2.50
2018-04-07T18:03:01.920Z,3.80
2018-04-07T18:05:29.803Z,4.03
2018-04-07T18:07:57.420Z,3.50
2018-04-07T18:10:24.990Z,3.90
2018-04-07T18:12:52.593Z,4.23
2018-04-07T18:15:20.208Z,5.93
2018-04-07T18:17:47.762Z,4.07
2018-04-07T18:20:15.618Z,3.67
2018-04-07T18:22:43.404Z,2.83
2018-04-07T18:25:11.488Z,3.10
2018-04-07T18:27:39.430Z,3.00
2018-04-07T18:30:07.874Z,2.80
2018-04-07T18:32:35.784Z,3.23
2018-04-07T18:35:09.411Z,3.00
2018-04-07T18:37:38.621Z,2.67
2018-04-07T18:40:06.294Z,2.70
2018-04-07T18:42:34.052Z,2.67
2018-04-07T18:45:01.616Z,3.00
2018-04-07T18:47:29.257Z,3.27
2018-04-07T18:49:57.016Z,3.20
2018-04-07T18:52:24.997Z,3.50
2018-04-07T18:54:52.616Z,3.50
2018-04-07T18:57:20.177Z,3.50
2018-04-07T18:59:47.836Z,2.87
2018-04-07T19:02:15.522Z,3.53
2018-04-07T19:04:43.240Z,3.10
2018-04-07T19:07:10.853Z,3.33
2018-04-07T19:09:38.487Z,3.17
2018-04-07T19:12:06.021Z,3.87
2018-04-07T19:14:33.638Z,3.30
2018-04-07T19:17:01.190Z,3.07
2018-04-07T19:19:28.934Z,3.40
2018-04-07T19:21:56.480Z,3.63
2018-04-07T19:24:24.176Z,3.30
2018-04-07T19:26:51.750Z,3.80
2018-04-07T19:29:19.321Z,3.53
2018-04-07T19:31:46.907Z,3.53
2018-04-07T19:34:14.546Z,3.23
2018-04-07T19:36:42.389Z,3.80
2018-04-07T19:39:09.945Z,3.33
2018-04-07T19:41:37.549Z,2.90
2018-04-07T19:44:05.155Z,3.30
2018-04-07T19:46:32.785Z,3.60
2018-04-07T19:49:00.495Z,3.30
2018-04-07T19:51:28.126Z,3.30
2018-04-07T19:53:55.673Z,3.50
2018-04-07T19:56:23.629Z,3.07
2018-04-07T19:58:51.463Z,3.30
2018-04-07T20:01:19.016Z,2.63
2018-04-07T20:03:46.578Z,3.47
2018-04-07T20:06:14.154Z,3.73
2018-04-07T20:08:42.036Z,3.27
2018-04-07T20:11:09.614Z,3.03
2018-04-07T20:13:37.186Z,3.20
2018-04-07T20:16:04.802Z,3.33
2018-04-07T20:18:32.618Z,3.00
2018-04-07T20:21:00.150Z,3.27
2018-04-07T20:23:27.693Z,3.07
2018-04-07T20:25:55.249Z,2.83
2018-04-07T20:28:22.782Z,3.10
2018-04-07T20:30:50.337Z,2.73
2018-04-07T20:33:17.937Z,2.77
2018-04-07T20:35:45.467Z,3.50
2018-04-07T20:38:13.355Z,3.00
2018-04-07T20:40:40.943Z,2.97
2018-04-07T20:43:13.313Z,3.10
2018-04-07T20:45:40.849Z,3.10
2018-04-07T20:48:08.343Z,2.83
2018-04-07T20:50:35.886Z,3.43
2018-04-07T20:53:03.443Z,2.87
2018-04-07T20:55:30.982Z,3.03
2018-04-07T20:57:58.528Z,3.37
2018-04-07T21:00:26.069Z,3.33
2018-04-07T21:02:53.625Z,2.80
2018-04-07T21:05:21.175Z,2.63
2018-04-07T21:07:48.719Z,3.70
2018-04-07T21:10:16.310Z,2.40
2018-04-07T21:12:43.860Z,2.63
2018-04-07T21:15:11.665Z,3.10
2018-04-07T21:17:39.327Z,2.77
2018-04-07T21:20:07.299Z,2.90
2018-04-07T21:22:34.866Z,3.00
2018-04-07T21:25:02.408Z,2.90
2018-04-07T21:27:29.952Z,2.63
2018-04-07T21:29:57.481Z,2.73
2018-04-07T21:32:25.071Z,2.90
2018-04-07T21:34:52.612Z,3.20
2018-04-07T21:37:20.145Z,2.93
2018-04-07T21:39:47.679Z,2.90
2018-04-07T21:42:15.279Z,3.30
2018-04-07T21:44:42.820Z,2.70
2018-04-07T21:47:10.356Z,2.77
2018-04-07T21:49:37.894Z,2.63
2018-04-07T21:52:05.443Z,3.30
2018-04-07T21:54:32.979Z,3.77
2018-04-07T21:57:00.519Z,3.87
2018-04-07T21:59:28.052Z,3.80
2018-04-07T22:01:55.917Z,2.90
2018-04-07T22:04:23.447Z,2.77
2018-04-07T22:06:50.988Z,4.00
2018-04-07T22:09:18.536Z,2.70
2018-04-07T22:11:46.133Z,3.27
2018-04-07T22:14:14.194Z,2.70
2018-04-07T22:16:41.785Z,2.43
2018-04-07T22:19:09.400Z,2.87
2018-04-07T22:21:37.016Z,3.03
2018-04-07T22:24:04.566Z,3.10
2018-04-07T22:26:32.174Z,2.27
2018-04-07T22:28:59.751Z,2.57
2018-04-07T22:31:27.362Z,2.93
2018-04-07T22:33:54.918Z,2.37
2018-04-07T22:36:22.462Z,2.40
2018-04-07T22:38:50.241Z,2.53
2018-04-07T22:41:17.781Z,2.90
2018-04-07T22:43:45.313Z,2.73
2018-04-07T22:46:12.910Z,2.50
2018-04-07T22:48:40.462Z,2.80
2018-04-07T22:51:08.005Z,2.63
2018-04-07T22:53:35.537Z,3.10
2018-04-07T22:56:03.101Z,2.43
2018-04-07T22:58:30.655Z,2.43
2018-04-07T23:00:58.200Z,3.13
2018-04-07T23:03:25.814Z,2.83
2018-04-07T23:05:53.387Z,2.60
2018-04-07T23:08:20.975Z,2.43
2018-04-07T23:10:48.540Z,2.70
2018-04-07T23:13:16.175Z,2.20
2018-04-07T23:15:43.717Z,2.80
2018-04-07T23:18:11.601Z,2.23
2018-04-07T23:20:39.132Z,2.30
2018-04-07T23:23:07.573Z,2.60
2018-04-07T23:25:35.105Z,2.83
2018-04-07T23:28:02.677Z,2.50
2018-04-07T23:30:30.225Z,2.80
2018-04-07T23:32:57.801Z,2.60
2018-04-07T23:35:25.361Z,2.60
2018-04-07T23:37:52.906Z,3.90
2018-04-07T23:40:20.502Z,2.97
2018-04-07T23:42:48.046Z,2.97
2018-04-07T23:45:15.610Z,2.73
2018-04-07T23:47:43.163Z,2.50
2018-04-07T23:50:11.150Z,2.67
2018-04-07T23:52:38.694Z,3.10
2018-04-07T23:55:06.262Z,2.43
2018-04-07T23:57:33.802Z,2.57
